sensor_id;sensor_type;location;lat;lon;timestamp;P1;durP1;ratioP1;P2;durP2;ratioP2
66761;SDS011;53672;48.176;16.338;2023-04-24T00:00:00;8.77;;;5.17;;
66761;SDS011;53672;48.176;16.338;2023-04-24T00:05:01;8.57;;;5.03;;
66761;SDS011;53672;48.176;16.338;2023-04-24T00:10:01;9.70;;;5.00;;
66761;SDS011;53672;48.176;16.338;2023-04-24T00:15:03;12.17;;;5.60;;
66761;SDS011;53672;48.176;16.338;2023-04-24T00:20:05;8.65;;;5.03;;
66761;SDS011;53672;48.176;16.338;2023-04-24T00:25:06;7.80;;;5.10;;
66761;SDS011;53672;48.176;16.338;2023-04-24T00:30:09;10.90;;;5.00;;
66761;SDS011;53672;48.176;16.338;2023-04-24T00:35:10;9.75;;;5.28;;
66761;SDS011;53672;48.176;16.338;2023-04-24T00:40:11;8.77;;;5.07;;
66761;SDS011;53672;48.176;16.338;2023-04-24T00:45:13;8.77;;;5.40;;
66761;SDS011;53672;48.176;16.338;2023-04-24T00:50:14;10.52;;;5.45;;
66761;SDS011;53672;48.176;16.338;2023-04-24T00:55:15;9.57;;;5.55;;
66761;SDS011;53672;48.176;16.338;2023-04-24T01:00:17;10.33;;;5.73;;
66761;SDS011;53672;48.176;16.338;2023-04-24T01:05:17;10.90;;;5.63;;
66761;SDS011;53672;48.176;16.338;2023-04-24T01:10:18;9.60;;;5.80;;
66761;SDS011;53672;48.176;16.338;2023-04-24T01:15:20;10.97;;;5.80;;
66761;SDS011;53672;48.176;16.338;2023-04-24T01:20:21;10.68;;;5.82;;
66761;SDS011;53672;48.176;16.338;2023-04-24T01:25:23;10.97;;;5.90;;
66761;SDS011;53672;48.176;16.338;2023-04-24T01:30:25;9.50;;;5.95;;
66761;SDS011;53672;48.176;16.338;2023-04-24T01:35:26;10.00;;;6.17;;
66761;SDS011;53672;48.176;16.338;2023-04-24T01:40:28;11.07;;;6.10;;
66761;SDS011;53672;48.176;16.338;2023-04-24T01:45:29;10.45;;;5.68;;
66761;SDS011;53672;48.176;16.338;2023-04-24T01:50:29;10.37;;;5.83;;
66761;SDS011;53672;48.176;16.338;2023-04-24T01:55:31;10.67;;;6.00;;
66761;SDS011;53672;48.176;16.338;2023-04-24T02:00:32;9.05;;;5.50;;
66761;SDS011;53672;48.176;16.338;2023-04-24T02:05:32;8.93;;;5.37;;
66761;SDS011;53672;48.176;16.338;2023-04-24T02:10:34;13.27;;;5.40;;
66761;SDS011;53672;48.176;16.338;2023-04-24T02:15:34;8.80;;;5.28;;
66761;SDS011;53672;48.176;16.338;2023-04-24T02:20:35;8.40;;;4.90;;
66761;SDS011;53672;48.176;16.338;2023-04-24T02:25:37;8.07;;;4.50;;
66761;SDS011;53672;48.176;16.338;2023-04-24T02:30:37;9.35;;;4.63;;
66761;SDS011;53672;48.176;16.338;2023-04-24T02:35:38;8.63;;;5.00;;
66761;SDS011;53672;48.176;16.338;2023-04-24T02:40:39;7.73;;;4.50;;
66761;SDS011;53672;48.176;16.338;2023-04-24T02:45:40;8.60;;;4.65;;
66761;SDS011;53672;48.176;16.338;2023-04-24T02:50:40;7.43;;;4.05;;
66761;SDS011;53672;48.176;16.338;2023-04-24T02:55:42;8.07;;;4.00;;
66761;SDS011;53672;48.176;16.338;2023-04-24T03:00:43;7.07;;;4.10;;
66761;SDS011;53672;48.176;16.338;2023-04-24T03:05:43;6.67;;;3.63;;
66761;SDS011;53672;48.176;16.338;2023-04-24T03:10:45;6.50;;;3.63;;
66761;SDS011;53672;48.176;16.338;2023-04-24T03:15:45;7.68;;;3.92;;
66761;SDS011;53672;48.176;16.338;2023-04-24T03:20:46;7.73;;;3.63;;
66761;SDS011;53672;48.176;16.338;2023-04-24T03:25:47;7.63;;;3.87;;
66761;SDS011;53672;48.176;16.338;2023-04-24T03:30:48;8.25;;;4.00;;
66761;SDS011;53672;48.176;16.338;2023-04-24T03:35:48;6.80;;;3.27;;
66761;SDS011;53672;48.176;16.338;2023-04-24T03:40:50;5.80;;;3.27;;
66761;SDS011;53672;48.176;16.338;2023-04-24T03:45:51;7.72;;;3.45;;
66761;SDS011;53672;48.176;16.338;2023-04-24T03:50:51;9.73;;;4.30;;
66761;SDS011;53672;48.176;16.338;2023-04-24T03:55:53;9.53;;;3.47;;
66761;SDS011;53672;48.176;16.338;2023-04-24T04:00:54;6.33;;;3.10;;
66761;SDS011;53672;48.176;16.338;2023-04-24T04:05:54;6.57;;;3.67;;
66761;SDS011;53672;48.176;16.338;2023-04-24T04:10:56;8.73;;;3.22;;
66761;SDS011;53672;48.176;16.338;2023-04-24T04:15:56;7.23;;;3.23;;
66761;SDS011;53672;48.176;16.338;2023-04-24T04:20:57;5.30;;;3.10;;
66761;SDS011;53672;48.176;16.338;2023-04-24T04:25:59;7.27;;;3.13;;
66761;SDS011;53672;48.176;16.338;2023-04-24T04:30:59;6.07;;;3.08;;
66761;SDS011;53672;48.176;16.338;2023-04-24T04:36:00;5.90;;;3.10;;
66761;SDS011;53672;48.176;16.338;2023-04-24T04:41:02;5.90;;;2.80;;
66761;SDS011;53672;48.176;16.338;2023-04-24T04:46:03;5.97;;;2.85;;
66761;SDS011;53672;48.176;16.338;2023-04-24T04:51:04;4.70;;;2.50;;
66761;SDS011;53672;48.176;16.338;2023-04-24T04:56:06;5.82;;;2.80;;
66761;SDS011;53672;48.176;16.338;2023-04-24T05:01:06;5.33;;;2.77;;
66761;SDS011;53672;48.176;16.338;2023-04-24T05:06:07;5.27;;;2.47;;
66761;SDS011;53672;48.176;16.338;2023-04-24T05:11:09;5.77;;;2.70;;
66761;SDS011;53672;48.176;16.338;2023-04-24T05:16:09;5.55;;;2.78;;
66761;SDS011;53672;48.176;16.338;2023-04-24T05:21:10;5.70;;;2.90;;
66761;SDS011;53672;48.176;16.338;2023-04-24T05:26:12;5.53;;;2.80;;
66761;SDS011;53672;48.176;16.338;2023-04-24T05:31:13;6.50;;;2.97;;
66761;SDS011;53672;48.176;16.338;2023-04-24T05:36:13;6.20;;;2.63;;
66761;SDS011;53672;48.176;16.338;2023-04-24T05:41:15;6.93;;;3.07;;
66761;SDS011;53672;48.176;16.338;2023-04-24T05:46:16;6.45;;;2.80;;
66761;SDS011;53672;48.176;16.338;2023-04-24T05:51:16;8.40;;;3.10;;
66761;SDS011;53672;48.176;16.338;2023-04-24T05:56:18;5.33;;;2.80;;
66761;SDS011;53672;48.176;16.338;2023-04-24T06:01:19;5.27;;;2.70;;
66761;SDS011;53672;48.176;16.338;2023-04-24T06:06:19;5.00;;;2.57;;
66761;SDS011;53672;48.176;16.338;2023-04-24T06:11:21;5.22;;;2.38;;
66761;SDS011;53672;48.176;16.338;2023-04-24T06:16:22;6.20;;;2.57;;
66761;SDS011;53672;48.176;16.338;2023-04-24T06:21:22;5.20;;;2.70;;
66761;SDS011;53672;48.176;16.338;2023-04-24T06:26:24;5.17;;;2.40;;
66761;SDS011;53672;48.176;16.338;2023-04-24T06:31:24;5.47;;;2.50;;
66761;SDS011;53672;48.176;16.338;2023-04-24T06:36:25;5.57;;;2.23;;
66761;SDS011;53672;48.176;16.338;2023-04-24T06:41:27;4.60;;;2.50;;
66761;SDS011;53672;48.176;16.338;2023-04-24T06:46:28;5.00;;;2.22;;
66761;SDS011;53672;48.176;16.338;2023-04-24T06:51:28;5.10;;;2.27;;
66761;SDS011;53672;48.176;16.338;2023-04-24T06:56:30;4.63;;;2.23;;
66761;SDS011;53672;48.176;16.338;2023-04-24T07:01:31;4.43;;;2.22;;
66761;SDS011;53672;48.176;16.338;2023-04-24T07:06:31;4.93;;;2.13;;
66761;SDS011;53672;48.176;16.338;2023-04-24T07:11:33;4.23;;;2.00;;
66761;SDS011;53672;48.176;16.338;2023-04-24T07:16:33;5.77;;;1.70;;
66761;SDS011;53672;48.176;16.338;2023-04-24T07:21:34;5.13;;;2.33;;
66761;SDS011;53672;48.176;16.338;2023-04-24T07:26:36;4.45;;;1.75;;
66761;SDS011;53672;48.176;16.338;2023-04-24T07:31:37;4.00;;;1.70;;
66761;SDS011;53672;48.176;16.338;2023-04-24T07:36:38;5.87;;;1.90;;
66761;SDS011;53672;48.176;16.338;2023-04-24T07:41:40;4.35;;;1.80;;
66761;SDS011;53672;48.176;16.338;2023-04-24T07:46:40;5.10;;;2.10;;
66761;SDS011;53672;48.176;16.338;2023-04-24T07:51:41;3.65;;;1.80;;
66761;SDS011;53672;48.176;16.338;2023-04-24T07:56:43;3.80;;;1.70;;
66761;SDS011;53672;48.176;16.338;2023-04-24T08:01:44;3.43;;;1.70;;
66761;SDS011;53672;48.176;16.338;2023-04-24T08:06:44;5.03;;;2.30;;
66761;SDS011;53672;48.176;16.338;2023-04-24T08:11:46;4.10;;;1.90;;
66761;SDS011;53672;48.176;16.338;2023-04-24T08:16:46;4.43;;;1.70;;
66761;SDS011;53672;48.176;16.338;2023-04-24T08:21:47;6.17;;;2.10;;
66761;SDS011;53672;48.176;16.338;2023-04-24T08:26:49;4.43;;;2.00;;
66761;SDS011;53672;48.176;16.338;2023-04-24T08:31:49;4.18;;;1.75;;
66761;SDS011;53672;48.176;16.338;2023-04-24T08:36:50;4.17;;;1.90;;
66761;SDS011;53672;48.176;16.338;2023-04-24T08:41:52;3.60;;;1.80;;
66761;SDS011;53672;48.176;16.338;2023-04-24T08:46:53;5.57;;;2.30;;
66761;SDS011;53672;48.176;16.338;2023-04-24T08:51:54;5.03;;;1.60;;
66761;SDS011;53672;48.176;16.338;2023-04-24T08:56:57;3.55;;;1.48;;
66761;SDS011;53672;48.176;16.338;2023-04-24T09:02:00;4.00;;;1.57;;
66761;SDS011;53672;48.176;16.338;2023-04-24T09:07:03;3.35;;;1.60;;
66761;SDS011;53672;48.176;16.338;2023-04-24T09:12:07;3.83;;;1.40;;
66761;SDS011;53672;48.176;16.338;2023-04-24T09:17:08;3.13;;;0.90;;
66761;SDS011;53672;48.176;16.338;2023-04-24T09:22:09;3.00;;;1.00;;
66761;SDS011;53672;48.176;16.338;2023-04-24T09:27:11;2.78;;;1.00;;
66761;SDS011;53672;48.176;16.338;2023-04-24T09:32:21;3.90;;;1.50;;
66761;SDS011;53672;48.176;16.338;2023-04-24T09:37:27;2.80;;;0.77;;
66761;SDS011;53672;48.176;16.338;2023-04-24T09:42:30;3.15;;;1.10;;
66761;SDS011;53672;48.176;16.338;2023-04-24T09:47:35;2.70;;;0.70;;
66761;SDS011;53672;48.176;16.338;2023-04-24T09:52:36;4.40;;;1.08;;
66761;SDS011;53672;48.176;16.338;2023-04-24T09:57:50;3.43;;;1.00;;
66761;SDS011;53672;48.176;16.338;2023-04-24T10:02:56;2.58;;;0.90;;
66761;SDS011;53672;48.176;16.338;2023-04-24T10:07:59;3.45;;;0.80;;
66761;SDS011;53672;48.176;16.338;2023-04-24T10:13:02;3.22;;;1.00;;
66761;SDS011;53672;48.176;16.338;2023-04-24T10:18:04;3.20;;;1.10;;
66761;SDS011;53672;48.176;16.338;2023-04-24T10:23:05;4.40;;;1.30;;
66761;SDS011;53672;48.176;16.338;2023-04-24T10:28:07;2.88;;;1.00;;
66761;SDS011;53672;48.176;16.338;2023-04-24T10:33:09;3.85;;;1.25;;
66761;SDS011;53672;48.176;16.338;2023-04-24T10:38:11;3.90;;;1.30;;
66761;SDS011;53672;48.176;16.338;2023-04-24T10:43:16;2.80;;;1.07;;
66761;SDS011;53672;48.176;16.338;2023-04-24T10:48:17;3.08;;;1.10;;
66761;SDS011;53672;48.176;16.338;2023-04-24T10:53:18;3.27;;;1.33;;
66761;SDS011;53672;48.176;16.338;2023-04-24T10:58:23;4.53;;;1.42;;
66761;SDS011;53672;48.176;16.338;2023-04-24T11:03:25;3.63;;;1.37;;
66761;SDS011;53672;48.176;16.338;2023-04-24T11:08:27;4.82;;;1.23;;
66761;SDS011;53672;48.176;16.338;2023-04-24T11:19:03;5.43;;;1.50;;
66761;SDS011;53672;48.176;16.338;2023-04-24T11:24:21;3.63;;;1.30;;
66761;SDS011;53672;48.176;16.338;2023-04-24T11:34:41;4.03;;;1.10;;
66761;SDS011;53672;48.176;16.338;2023-04-24T11:39:46;2.60;;;1.00;;
66761;SDS011;53672;48.176;16.338;2023-04-24T11:44:47;3.33;;;1.20;;
66761;SDS011;53672;48.176;16.338;2023-04-24T11:49:50;3.93;;;1.40;;
66761;SDS011;53672;48.176;16.338;2023-04-24T11:54:50;3.47;;;1.45;;
66761;SDS011;53672;48.176;16.338;2023-04-24T11:59:52;3.43;;;1.30;;
66761;SDS011;53672;48.176;16.338;2023-04-24T12:04:53;5.68;;;1.95;;
66761;SDS011;53672;48.176;16.338;2023-04-24T12:09:55;3.72;;;1.50;;
66761;SDS011;53672;48.176;16.338;2023-04-24T12:14:58;3.97;;;1.50;;
66761;SDS011;53672;48.176;16.338;2023-04-24T12:19:59;4.30;;;1.60;;
66761;SDS011;53672;48.176;16.338;2023-04-24T12:25:00;3.53;;;1.45;;
66761;SDS011;53672;48.176;16.338;2023-04-24T12:30:04;4.40;;;1.70;;
66761;SDS011;53672;48.176;16.338;2023-04-24T12:35:09;4.50;;;1.90;;
66761;SDS011;53672;48.176;16.338;2023-04-24T12:40:11;3.70;;;1.40;;
66761;SDS011;53672;48.176;16.338;2023-04-24T12:45:14;4.30;;;2.00;;
66761;SDS011;53672;48.176;16.338;2023-04-24T12:50:15;4.25;;;2.00;;
66761;SDS011;53672;48.176;16.338;2023-04-24T12:55:16;3.72;;;1.58;;
66761;SDS011;53672;48.176;16.338;2023-04-24T13:00:18;3.70;;;1.70;;
66761;SDS011;53672;48.176;16.338;2023-04-24T13:05:18;4.30;;;1.90;;
66761;SDS011;53672;48.176;16.338;2023-04-24T13:10:19;4.97;;;2.40;;
66761;SDS011;53672;48.176;16.338;2023-04-24T13:15:21;4.50;;;1.80;;
66761;SDS011;53672;48.176;16.338;2023-04-24T13:20:21;4.47;;;2.10;;
66761;SDS011;53672;48.176;16.338;2023-04-24T13:25:22;4.20;;;1.90;;
66761;SDS011;53672;48.176;16.338;2023-04-24T13:30:24;5.57;;;1.90;;
66761;SDS011;53672;48.176;16.338;2023-04-24T13:35:24;4.90;;;1.48;;
66761;SDS011;53672;48.176;16.338;2023-04-24T13:40:25;4.53;;;1.40;;
66761;SDS011;53672;48.176;16.338;2023-04-24T13:45:27;4.00;;;1.70;;
66761;SDS011;53672;48.176;16.338;2023-04-24T13:50:27;4.32;;;1.60;;
66761;SDS011;53672;48.176;16.338;2023-04-24T13:55:28;3.80;;;1.80;;
66761;SDS011;53672;48.176;16.338;2023-04-24T14:00:30;3.83;;;1.60;;
66761;SDS011;53672;48.176;16.338;2023-04-24T14:05:30;3.45;;;1.27;;
66761;SDS011;53672;48.176;16.338;2023-04-24T14:10:31;3.73;;;1.40;;
66761;SDS011;53672;48.176;16.338;2023-04-24T14:15:33;4.53;;;1.30;;
66761;SDS011;53672;48.176;16.338;2023-04-24T14:20:35;3.85;;;1.30;;
66761;SDS011;53672;48.176;16.338;2023-04-24T14:25:35;3.67;;;1.50;;
66761;SDS011;53672;48.176;16.338;2023-04-24T14:30:37;4.30;;;1.60;;
66761;SDS011;53672;48.176;16.338;2023-04-24T14:35:38;3.50;;;1.60;;
66761;SDS011;53672;48.176;16.338;2023-04-24T14:40:38;4.28;;;1.92;;
66761;SDS011;53672;48.176;16.338;2023-04-24T14:45:41;4.72;;;1.55;;
66761;SDS011;53672;48.176;16.338;2023-04-24T14:50:41;4.88;;;1.67;;
66761;SDS011;53672;48.176;16.338;2023-04-24T14:55:42;4.60;;;1.70;;
66761;SDS011;53672;48.176;16.338;2023-04-24T15:00:44;4.00;;;1.50;;
66761;SDS011;53672;48.176;16.338;2023-04-24T15:05:44;4.50;;;1.60;;
66761;SDS011;53672;48.176;16.338;2023-04-24T15:10:45;4.43;;;1.80;;
66761;SDS011;53672;48.176;16.338;2023-04-24T15:15:47;3.70;;;1.47;;
66761;SDS011;53672;48.176;16.338;2023-04-24T15:20:47;3.10;;;1.40;;
66761;SDS011;53672;48.176;16.338;2023-04-24T15:25:48;5.60;;;1.37;;
66761;SDS011;53672;48.176;16.338;2023-04-24T15:30:50;3.13;;;1.23;;
66761;SDS011;53672;48.176;16.338;2023-04-24T15:35:50;3.53;;;1.10;;
66761;SDS011;53672;48.176;16.338;2023-04-24T15:40:51;5.00;;;1.10;;
66761;SDS011;53672;48.176;16.338;2023-04-24T15:45:52;3.30;;;0.70;;
66761;SDS011;53672;48.176;16.338;2023-04-24T15:50:53;3.38;;;0.90;;
66761;SDS011;53672;48.176;16.338;2023-04-24T15:55:53;3.57;;;0.90;;
66761;SDS011;53672;48.176;16.338;2023-04-24T16:00:55;4.37;;;1.20;;
66761;SDS011;53672;48.176;16.338;2023-04-24T16:05:56;5.25;;;0.90;;
66761;SDS011;53672;48.176;16.338;2023-04-24T16:10:57;2.97;;;0.80;;
66761;SDS011;53672;48.176;16.338;2023-04-24T16:15:59;5.03;;;0.90;;
66761;SDS011;53672;48.176;16.338;2023-04-24T16:20:59;3.63;;;1.02;;
66761;SDS011;53672;48.176;16.338;2023-04-24T16:26:00;3.23;;;0.90;;
66761;SDS011;53672;48.176;16.338;2023-04-24T16:31:02;3.63;;;1.27;;
66761;SDS011;53672;48.176;16.338;2023-04-24T16:36:02;3.00;;;1.20;;
66761;SDS011;53672;48.176;16.338;2023-04-24T16:41:03;3.17;;;1.30;;
66761;SDS011;53672;48.176;16.338;2023-04-24T16:46:05;3.93;;;1.50;;
66761;SDS011;53672;48.176;16.338;2023-04-24T16:51:05;4.75;;;1.33;;
66761;SDS011;53672;48.176;16.338;2023-04-24T16:56:06;3.60;;;1.30;;
66761;SDS011;53672;48.176;16.338;2023-04-24T17:01:08;5.33;;;1.50;;
66761;SDS011;53672;48.176;16.338;2023-04-24T17:06:08;4.20;;;1.30;;
66761;SDS011;53672;48.176;16.338;2023-04-24T17:11:09;4.90;;;1.90;;
66761;SDS011;53672;48.176;16.338;2023-04-24T17:16:11;5.78;;;2.00;;
66761;SDS011;53672;48.176;16.338;2023-04-24T17:21:12;6.37;;;2.83;;
66761;SDS011;53672;48.176;16.338;2023-04-24T17:26:13;7.37;;;2.90;;
66761;SDS011;53672;48.176;16.338;2023-04-24T17:31:15;6.68;;;2.55;;
66761;SDS011;53672;48.176;16.338;2023-04-24T17:36:15;5.53;;;2.20;;
66761;SDS011;53672;48.176;16.338;2023-04-24T17:41:16;5.90;;;2.40;;
66761;SDS011;53672;48.176;16.338;2023-04-24T17:46:19;5.73;;;2.50;;
66761;SDS011;53672;48.176;16.338;2023-04-24T17:51:19;6.03;;;2.38;;
66761;SDS011;53672;48.176;16.338;2023-04-24T17:56:20;5.87;;;2.20;;
66761;SDS011;53672;48.176;16.338;2023-04-24T18:01:24;5.73;;;2.60;;
66761;SDS011;53672;48.176;16.338;2023-04-24T18:06:25;4.57;;;2.40;;
66761;SDS011;53672;48.176;16.338;2023-04-24T18:11:26;6.33;;;2.07;;
66761;SDS011;53672;48.176;16.338;2023-04-24T18:16:27;4.83;;;2.00;;
66761;SDS011;53672;48.176;16.338;2023-04-24T18:21:28;5.47;;;2.00;;
66761;SDS011;53672;48.176;16.338;2023-04-24T18:26:29;4.72;;;2.22;;
66761;SDS011;53672;48.176;16.338;2023-04-24T18:31:32;5.10;;;2.30;;
66761;SDS011;53672;48.176;16.338;2023-04-24T18:36:33;4.75;;;1.95;;
66761;SDS011;53672;48.176;16.338;2023-04-24T18:41:33;4.13;;;1.80;;
66761;SDS011;53672;48.176;16.338;2023-04-24T18:46:35;5.47;;;1.93;;
66761;SDS011;53672;48.176;16.338;2023-04-24T18:51:37;4.38;;;1.75;;
66761;SDS011;53672;48.176;16.338;2023-04-24T18:56:37;5.53;;;2.10;;
66761;SDS011;53672;48.176;16.338;2023-04-24T19:01:40;5.37;;;2.10;;
66761;SDS011;53672;48.176;16.338;2023-04-24T19:06:40;4.75;;;1.90;;
66761;SDS011;53672;48.176;16.338;2023-04-24T19:11:41;4.90;;;2.27;;
66761;SDS011;53672;48.176;16.338;2023-04-24T19:16:42;4.93;;;1.97;;
66761;SDS011;53672;48.176;16.338;2023-04-24T19:21:43;3.85;;;1.77;;
66761;SDS011;53672;48.176;16.338;2023-04-24T19:26:45;5.47;;;2.00;;
66761;SDS011;53672;48.176;16.338;2023-04-24T19:31:47;4.30;;;2.03;;
66761;SDS011;53672;48.176;16.338;2023-04-24T19:36:48;5.93;;;2.00;;
66761;SDS011;53672;48.176;16.338;2023-04-24T19:41:49;4.18;;;2.10;;
66761;SDS011;53672;48.176;16.338;2023-04-24T19:46:51;5.20;;;2.33;;
66761;SDS011;53672;48.176;16.338;2023-04-24T19:51:51;4.88;;;2.28;;
66761;SDS011;53672;48.176;16.338;2023-04-24T19:56:52;6.07;;;2.00;;
66761;SDS011;53672;48.176;16.338;2023-04-24T20:01:54;4.97;;;2.17;;
66761;SDS011;53672;48.176;16.338;2023-04-24T20:06:55;4.50;;;2.00;;
66761;SDS011;53672;48.176;16.338;2023-04-24T20:11:55;4.73;;;2.03;;
66761;SDS011;53672;48.176;16.338;2023-04-24T20:16:57;4.40;;;2.00;;
66761;SDS011;53672;48.176;16.338;2023-04-24T20:21:58;6.55;;;2.20;;
66761;SDS011;53672;48.176;16.338;2023-04-24T20:26:58;7.17;;;2.40;;
66761;SDS011;53672;48.176;16.338;2023-04-24T20:32:00;4.40;;;1.90;;
66761;SDS011;53672;48.176;16.338;2023-04-24T20:37:01;4.63;;;2.03;;
66761;SDS011;53672;48.176;16.338;2023-04-24T20:42:01;4.60;;;2.00;;
66761;SDS011;53672;48.176;16.338;2023-04-24T20:47:03;4.60;;;2.00;;
66761;SDS011;53672;48.176;16.338;2023-04-24T20:52:04;4.40;;;2.00;;
66761;SDS011;53672;48.176;16.338;2023-04-24T20:57:04;4.90;;;2.10;;
66761;SDS011;53672;48.176;16.338;2023-04-24T21:02:06;4.40;;;1.87;;
66761;SDS011;53672;48.176;16.338;2023-04-24T21:07:07;7.10;;;2.00;;
66761;SDS011;53672;48.176;16.338;2023-04-24T21:12:07;4.82;;;2.08;;
66761;SDS011;53672;48.176;16.338;2023-04-24T21:17:09;5.53;;;1.93;;
66761;SDS011;53672;48.176;16.338;2023-04-24T21:22:09;4.70;;;2.13;;
66761;SDS011;53672;48.176;16.338;2023-04-24T21:27:10;4.70;;;2.37;;
66761;SDS011;53672;48.176;16.338;2023-04-24T21:32:12;5.35;;;2.17;;
66761;SDS011;53672;48.176;16.338;2023-04-24T21:37:12;7.97;;;2.72;;
66761;SDS011;53672;48.176;16.338;2023-04-24T21:42:13;4.67;;;2.13;;
66761;SDS011;53672;48.176;16.338;2023-04-24T21:47:15;4.43;;;2.17;;
66761;SDS011;53672;48.176;16.338;2023-04-24T21:52:15;5.93;;;2.20;;
66761;SDS011;53672;48.176;16.338;2023-04-24T21:57:16;4.37;;;2.03;;
66761;SDS011;53672;48.176;16.338;2023-04-24T22:02:18;5.20;;;2.10;;
66761;SDS011;53672;48.176;16.338;2023-04-24T22:07:18;4.78;;;2.08;;
66761;SDS011;53672;48.176;16.338;2023-04-24T22:12:19;5.37;;;2.30;;
66761;SDS011;53672;48.176;16.338;2023-04-24T22:17:21;4.70;;;1.80;;
66761;SDS011;53672;48.176;16.338;2023-04-24T22:22:21;4.32;;;2.00;;
66761;SDS011;53672;48.176;16.338;2023-04-24T22:27:22;4.93;;;1.90;;
66761;SDS011;53672;48.176;16.338;2023-04-24T22:32:24;7.27;;;2.57;;
66761;SDS011;53672;48.176;16.338;2023-04-24T22:37:24;3.92;;;2.10;;
66761;SDS011;53672;48.176;16.338;2023-04-24T22:42:25;5.83;;;1.80;;
66761;SDS011;53672;48.176;16.338;2023-04-24T22:47:27;5.80;;;2.37;;
66761;SDS011;53672;48.176;16.338;2023-04-24T22:52:28;4.90;;;1.92;;
66761;SDS011;53672;48.176;16.338;2023-04-24T22:57:28;5.33;;;2.30;;
66761;SDS011;53672;48.176;16.338;2023-04-24T23:02:30;4.03;;;1.90;;
66761;SDS011;53672;48.176;16.338;2023-04-24T23:07:30;4.35;;;2.13;;
66761;SDS011;53672;48.176;16.338;2023-04-24T23:12:31;5.57;;;2.30;;
66761;SDS011;53672;48.176;16.338;2023-04-24T23:17:33;5.30;;;2.30;;
66761;SDS011;53672;48.176;16.338;2023-04-24T23:22:33;6.22;;;2.40;;
66761;SDS011;53672;48.176;16.338;2023-04-24T23:27:34;5.57;;;1.95;;
66761;SDS011;53672;48.176;16.338;2023-04-24T23:32:36;4.20;;;1.80;;
66761;SDS011;53672;48.176;16.338;2023-04-24T23:37:36;4.57;;;2.10;;
66761;SDS011;53672;48.176;16.338;2023-04-24T23:42:37;4.47;;;1.83;;
66761;SDS011;53672;48.176;16.338;2023-04-24T23:47:39;4.55;;;2.10;;
66761;SDS011;53672;48.176;16.338;2023-04-24T23:52:39;6.17;;;2.87;;
66761;SDS011;53672;48.176;16.338;2023-04-24T23:57:40;4.60;;;1.90;;
